Time;durP1;ratioP1;P1;durP2;ratioP2;P2;SDS_P1;SDS_P2;PMS_P1;PMS_P2;Temp;Humidity;BMP_temperature;BMP_pressure;BME280_temperature;BME280_humidity;BME280_pressure;Samples;Min_cycle;Max_cycle;Signal;HPM_P1;HPM_P2
2021/12/22 00:00:01;;;;;;;13.03;8.43;;;;;;;-2.30;91.81;101599.03;5053594;28;20026;-72
2021/12/22 00:02:29;;;;;;;16.97;8.50;;;;;;;-2.39;91.90;101604.03;5053187;28;20029;-71
2021/12/22 00:04:56;;;;;;;23.43;11.87;;;;;;;-2.28;92.21;101666.78;5053565;28;20071;-71
2021/12/22 00:07:22;;;;;;;13.43;7.13;;;;;;;-3.16;92.26;101638.66;5052918;28;20024;-71
2021/12/22 00:09:47;;;;;;;19.10;8.40;;;;;;;-3.34;94.24;101672.84;5053679;28;20025;-71
2021/12/22 00:12:13;;;;;;;21.10;8.90;;;;;;;-3.59;95.25;101635.69;5053170;28;20033;-71
2021/12/22 00:14:38;;;;;;;18.10;9.93;;;;;;;-3.06;95.45;101689.47;5053212;28;20130;-71
2021/12/22 00:17:04;;;;;;;20.40;10.20;;;;;;;-3.02;95.22;101695.75;5053386;28;20044;-72
2021/12/22 00:19:30;;;;;;;19.63;10.10;;;;;;;-2.95;95.60;101698.25;5053021;28;20075;-72
2021/12/22 00:21:56;;;;;;;26.33;9.10;;;;;;;-2.94;95.35;101688.28;5052711;28;20033;-71
2021/12/22 00:24:21;;;;;;;18.93;10.23;;;;;;;-2.85;95.08;101687.53;5052961;28;20072;-71
2021/12/22 00:26:47;;;;;;;12.63;7.87;;;;;;;-2.71;94.80;101705.09;5053055;28;20078;-71
2021/12/22 00:29:13;;;;;;;15.20;8.20;;;;;;;-2.68;94.58;101702.00;5052715;28;20094;-72
2021/12/22 00:31:55;;;;;;;11.77;7.93;;;;;;;-2.66;94.22;101705.59;5052722;28;20029;-72
2021/12/22 00:34:21;;;;;;;14.50;8.17;;;;;;;-2.58;93.94;101708.97;5000946;28;20037;-72
2021/12/22 00:36:46;;;;;;;13.93;8.93;;;;;;;-2.72;94.06;101679.66;5052817;28;20095;-72
2021/12/22 00:39:12;;;;;;;11.10;7.40;;;;;;;-2.48;93.77;101715.19;5051898;28;20453;-72
2021/12/22 00:41:38;;;;;;;10.90;7.70;;;;;;;-2.47;93.19;101717.00;5052870;28;20021;-72
2021/12/22 00:44:04;;;;;;;12.80;7.93;;;;;;;-2.53;93.27;101718.84;5052655;28;20039;-71
2021/12/22 00:46:29;;;;;;;15.40;8.27;;;;;;;-2.71;93.24;101726.94;5052828;28;20031;-72
2021/12/22 00:48:55;;;;;;;16.40;8.63;;;;;;;-2.99;94.25;101722.25;5052316;28;20104;-72
2021/12/22 00:51:21;;;;;;;12.03;7.77;;;;;;;-3.13;94.81;101725.78;5052280;28;20090;-72
2021/12/22 00:53:46;;;;;;;16.17;9.10;;;;;;;-3.33;95.21;101728.56;5052373;28;20068;-72
2021/12/22 00:56:12;;;;;;;14.37;8.70;;;;;;;-3.23;95.27;101730.50;5052498;28;20481;-72
2021/12/22 00:58:37;;;;;;;14.63;8.37;;;;;;;-3.01;94.67;101717.78;5052548;28;20028;-72
2021/12/22 01:01:04;;;;;;;13.33;8.40;;;;;;;-2.89;93.95;101718.22;5052659;28;20402;-72
2021/12/22 01:03:30;;;;;;;12.63;7.70;;;;;;;-2.77;93.60;101712.00;5052060;28;20475;-72
2021/12/22 01:05:55;;;;;;;13.10;9.13;;;;;;;-2.67;93.41;101711.38;5052345;28;20029;-72
2021/12/22 01:08:21;;;;;;;14.33;9.27;;;;;;;-2.79;92.80;101714.34;5052312;28;20029;-72
2021/12/22 01:10:47;;;;;;;14.47;8.63;;;;;;;-2.78;93.04;101705.13;5052023;28;20040;-72
2021/12/22 01:13:14;;;;;;;14.10;8.53;;;;;;;-2.81;93.61;101690.53;5052046;28;20036;-72
2021/12/22 01:15:40;;;;;;;14.80;8.10;;;;;;;-2.66;93.11;101706.47;5051962;28;20036;-72
2021/12/22 01:18:17;;;;;;;11.53;7.40;;;;;;;-2.59;92.46;101690.38;5051828;28;20086;-72
2021/12/22 01:23:19;;;;;;;11.40;7.93;;;;;;;-2.58;92.38;101676.97;5052122;28;20048;-72
2021/12/22 01:25:44;;;;;;;14.07;8.00;;;;;;;-2.56;92.01;101689.81;5051975;28;20071;-72
2021/12/22 01:28:11;;;;;;;14.00;8.17;;;;;;;-2.59;92.27;101682.78;5052028;28;20053;-72
2021/12/22 01:30:42;;;;;;;14.23;7.73;;;;;;;-2.55;92.37;101689.97;5051349;28;20491;-72
2021/12/22 01:33:08;;;;;;;15.17;7.57;;;;;;;-2.54;92.48;101686.72;5033963;28;20482;-72
2021/12/22 01:35:34;;;;;;;14.40;7.67;;;;;;;-2.60;92.35;101686.94;5051563;28;20483;-72
2021/12/22 01:38:00;;;;;;;12.63;7.70;;;;;;;-2.65;92.14;101667.84;5051509;28;20112;-72
2021/12/22 01:40:27;;;;;;;13.00;7.60;;;;;;;-2.47;91.22;101685.75;5051844;28;20021;-72
2021/12/22 01:42:55;;;;;;;14.97;9.10;;;;;;;-2.47;90.20;101681.59;5051360;28;20029;-72
2021/12/22 01:45:37;;;;;;;14.07;7.73;;;;;;;-2.67;91.22;101684.47;5051162;28;20029;-72
2021/12/22 01:50:50;;;;;;;14.20;7.87;;;;;;;-3.12;92.82;101641.66;5051339;28;20059;-72
2021/12/22 01:53:22;;;;;;;13.32;7.70;;;;;;;-3.19;93.10;101638.31;5016065;28;20127;-72
2021/12/22 01:56:21;;;;;;;14.60;7.83;;;;;;;-2.98;93.72;101681.13;5050946;28;20108;-72
2021/12/22 01:58:50;;;;;;;15.95;8.25;;;;;;;-2.97;93.71;101687.06;4970139;28;20046;-72
2021/12/22 02:01:16;;;;;;;10.40;6.73;;;;;;;-3.08;94.16;101678.28;4970287;28;20075;-71
2021/12/22 02:03:44;;;;;;;13.10;8.40;;;;;;;-3.06;94.44;101681.00;4969992;28;20129;-71
2021/12/22 02:06:11;;;;;;;17.33;8.53;;;;;;;-3.32;94.35;101664.72;4970002;28;20108;-71
2021/12/22 02:08:43;;;;;;;11.43;7.57;;;;;;;-3.15;94.41;101688.47;4970081;28;20531;-71
2021/12/22 02:11:08;;;;;;;16.80;10.60;;;;;;;-3.07;94.13;101686.78;4970026;28;20045;-71
2021/12/22 02:13:38;;;;;;;18.63;9.60;;;;;;;-3.15;94.15;101684.28;4953796;28;20034;-71
2021/12/22 02:16:12;;;;;;;15.17;9.13;;;;;;;-3.11;94.28;101688.06;4969921;28;20046;-71
2021/12/22 02:18:41;;;;;;;14.77;9.03;;;;;;;-3.03;93.87;101691.44;4969725;28;20038;-72
2021/12/22 02:21:07;;;;;;;14.40;8.55;;;;;;;-2.94;94.06;101685.78;4969845;28;20077;-71
2021/12/22 02:23:33;;;;;;;13.97;8.47;;;;;;;-2.95;93.17;101671.34;4969836;28;20568;-71
2021/12/22 02:26:08;;;;;;;16.57;9.10;;;;;;;-3.02;93.03;101680.59;4969770;28;20038;-71
2021/12/22 02:28:36;;;;;;;16.77;8.97;;;;;;;-3.02;93.01;101681.47;4969706;28;20046;-71
2021/12/22 02:31:02;;;;;;;14.07;8.77;;;;;;;-3.03;93.24;101682.22;4969495;28;20178;-72
2021/12/22 02:33:35;;;;;;;16.10;9.23;;;;;;;-2.95;93.15;101678.91;4969656;28;20069;-72
2021/12/22 02:38:47;;;;;;;16.73;9.70;;;;;;;-3.27;93.54;101632.41;5050875;28;20033;-72
2021/12/22 02:41:15;;;;;;;14.50;8.73;;;;;;;-3.06;93.42;101696.16;5050723;28;20040;-73
2021/12/22 02:43:46;;;;;;;12.47;7.80;;;;;;;-3.01;93.43;101698.44;5050425;28;20402;-72
2021/12/22 02:46:12;;;;;;;11.53;7.57;;;;;;;-2.97;93.07;101693.00;5050464;28;20076;-72
2021/12/22 02:48:39;;;;;;;12.43;7.87;;;;;;;-2.86;93.32;101704.28;5050677;28;20067;-73
2021/12/22 02:51:05;;;;;;;16.53;8.13;;;;;;;-2.77;92.85;101697.75;5050606;28;20538;-72
2021/12/22 02:53:48;;;;;;;13.10;7.53;;;;;;;-2.81;92.70;101682.06;5050400;28;20031;-72
2021/12/22 03:02:06;;;;;;;16.20;8.20;;;;;;;-2.75;93.57;101705.50;4989273;28;20100;-72
2021/12/22 03:04:30;;;;;;;12.57;8.33;;;;;;;-2.72;92.67;101704.91;4992612;28;20053;-72
2021/12/22 03:07:08;;;;;;;14.50;8.30;;;;;;;-2.96;93.65;101698.97;4992823;28;20440;-72
2021/12/22 03:09:35;;;;;;;12.13;8.33;;;;;;;-3.00;94.33;101701.88;4992788;28;20493;-72
2021/12/22 03:12:04;;;;;;;12.17;8.43;;;;;;;-2.96;94.96;101704.03;4992732;28;20038;-72
2021/12/22 03:14:30;;;;;;;14.35;9.63;;;;;;;-3.23;95.40;101662.31;4993047;28;20034;-72
2021/12/22 03:16:56;;;;;;;18.23;9.97;;;;;;;-3.11;95.13;101670.38;4992380;28;20034;-73
2021/12/22 03:19:25;;;;;;;14.90;8.70;;;;;;;-2.95;94.79;101703.28;4992493;28;20952;-72
2021/12/22 03:21:53;;;;;;;11.67;7.30;;;;;;;-3.22;95.07;101648.97;4992557;28;20042;-72
2021/12/22 03:24:21;;;;;;;13.57;8.03;;;;;;;-2.83;94.78;101712.22;4992606;28;20038;-72
2021/12/22 03:26:47;;;;;;;18.53;8.40;;;;;;;-2.87;94.70;101702.50;4992482;28;20033;-72
2021/12/22 03:29:15;;;;;;;15.47;9.00;;;;;;;-2.89;94.57;101698.00;4992436;28;20121;-72
2021/12/22 03:31:42;;;;;;;13.40;8.23;;;;;;;-2.87;94.85;101709.19;4992158;28;20069;-72
2021/12/22 03:34:09;;;;;;;12.77;8.67;;;;;;;-3.24;95.12;101630.22;4992396;28;20034;-72
2021/12/22 03:36:35;;;;;;;15.93;8.63;;;;;;;-2.84;95.06;101707.91;5036484;28;20097;-72
2021/12/22 03:39:02;;;;;;;11.97;7.37;;;;;;;-2.90;94.94;101714.81;5053936;28;20490;-72
2021/12/22 03:41:27;;;;;;;12.33;8.00;;;;;;;-2.88;95.17;101714.97;5053773;28;20179;-72
2021/12/22 03:43:53;;;;;;;11.47;7.63;;;;;;;-3.04;95.00;101669.41;5053626;28;20122;-72
2021/12/22 03:46:18;;;;;;;12.37;8.50;;;;;;;-2.68;94.86;101723.13;5053530;28;20048;-72
2021/12/22 03:48:44;;;;;;;14.73;9.27;;;;;;;-2.61;93.88;101725.56;5052673;28;20033;-72
2021/12/22 03:51:10;;;;;;;13.40;8.33;;;;;;;-2.62;93.45;101726.34;5053415;28;20056;-72
2021/12/22 03:53:36;;;;;;;17.27;9.50;;;;;;;-2.65;92.70;101723.44;5053661;28;20032;-72
2021/12/22 03:56:01;;;;;;;12.20;7.70;;;;;;;-2.73;92.98;101710.69;5053451;28;20035;-72
2021/12/22 03:58:27;;;;;;;14.13;7.23;;;;;;;-2.83;92.99;101701.22;5053633;28;20033;-72
2021/12/22 04:00:55;;;;;;;13.77;7.43;;;;;;;-2.72;92.73;101728.56;5053203;28;20032;-73
2021/12/22 04:03:24;;;;;;;15.37;8.27;;;;;;;-2.69;92.88;101728.00;5018844;28;20048;-73
2021/12/22 04:05:49;;;;;;;15.77;9.80;;;;;;;-2.74;92.76;101732.56;5053606;28;20036;-73
2021/12/22 04:08:18;;;;;;;16.97;9.13;;;;;;;-2.86;92.60;101711.88;5053288;28;20025;-73
2021/12/22 04:10:47;;;;;;;13.03;8.73;;;;;;;-3.12;92.77;101669.47;5053231;28;20112;-73
2021/12/22 04:13:13;;;;;;;13.88;8.60;;;;;;;-2.76;92.87;101731.50;5052817;28;20746;-73
2021/12/22 04:15:39;;;;;;;13.83;8.33;;;;;;;-3.11;93.27;101661.16;5053386;28;20068;-73
2021/12/22 04:18:06;;;;;;;18.83;9.10;;;;;;;-2.64;93.06;101726.91;5053238;28;20056;-73
2021/12/22 04:20:32;;;;;;;19.03;9.83;;;;;;;-2.67;92.89;101706.31;5053344;28;20033;-73
2021/12/22 04:22:59;;;;;;;18.50;9.97;;;;;;;-2.56;92.86;101723.56;5052891;28;20398;-73
2021/12/22 04:25:25;;;;;;;16.73;9.53;;;;;;;-2.58;92.77;101714.00;5053536;28;20029;-73
2021/12/22 04:27:55;;;;;;;14.20;8.27;;;;;;;-2.58;93.10;101719.97;5052738;28;20083;-73
2021/12/22 04:30:23;;;;;;;17.20;8.50;;;;;;;-2.75;93.84;101735.81;5052407;28;20572;-73
2021/12/22 04:32:48;;;;;;;13.17;7.93;;;;;;;-2.71;94.14;101730.38;5035027;28;20025;-73
2021/12/22 04:35:14;;;;;;;15.57;8.80;;;;;;;-3.04;93.46;101665.28;5052916;28;20036;-73
2021/12/22 04:37:40;;;;;;;12.30;7.97;;;;;;;-2.94;93.15;101668.09;5052934;28;20029;-73
2021/12/22 04:40:06;;;;;;;13.83;7.80;;;;;;;-2.68;92.93;101707.97;5053229;28;20024;-71
2021/12/22 04:42:31;;;;;;;13.10;8.20;;;;;;;-2.50;93.25;101739.41;5052255;28;20032;-72
2021/12/22 04:44:58;;;;;;;13.47;8.30;;;;;;;-2.46;93.18;101743.19;5052528;28;20037;-72
2021/12/22 04:47:24;;;;;;;11.47;7.83;;;;;;;-2.49;92.85;101727.69;5052977;28;20028;-72
2021/12/22 04:49:49;;;;;;;11.93;7.47;;;;;;;-2.40;92.75;101741.31;5052838;28;20079;-72
2021/12/22 04:52:18;;;;;;;12.70;7.87;;;;;;;-2.54;92.99;101731.31;5052423;28;20095;-72
2021/12/22 04:55:01;;;;;;;12.47;7.40;;;;;;;-2.60;93.72;101750.13;5052237;28;20032;-72
2021/12/22 04:57:26;;;;;;;14.37;7.53;;;;;;;-2.63;94.25;101746.38;5052284;28;20271;-72
2021/12/22 04:59:52;;;;;;;15.50;9.03;;;;;;;-2.97;94.38;101745.16;5016647;28;20103;-72
2021/12/22 05:02:17;;;;;;;14.37;8.83;;;;;;;-3.13;95.32;101743.47;5052185;28;20103;-72
2021/12/22 05:04:43;;;;;;;14.27;9.10;;;;;;;-3.47;96.89;101700.88;5052265;28;20029;-72
2021/12/22 05:07:08;;;;;;;19.60;12.20;;;;;;;-3.20;97.35;101742.59;5052123;28;20052;-71
2021/12/22 05:09:34;;;;;;;22.60;12.90;;;;;;;-3.27;98.57;101753.63;5051923;28;20177;-72
2021/12/22 05:11:59;;;;;;;21.03;12.70;;;;;;;-3.36;99.24;101750.97;5034289;28;20106;-72
2021/12/22 05:14:25;;;;;;;24.77;14.57;;;;;;;-3.43;98.96;101751.91;5051054;28;20028;-71
2021/12/22 05:16:53;;;;;;;28.93;18.07;;;;;;;-3.49;98.88;101751.22;5052201;28;20104;-72
2021/12/22 05:19:18;;;;;;;29.80;16.87;;;;;;;-3.35;99.20;101752.78;4984881;28;20495;-72
2021/12/22 05:21:45;;;;;;;35.07;18.60;;;;;;;-3.35;99.06;101749.34;5051854;28;20067;-72
2021/12/22 05:24:11;;;;;;;30.30;17.97;;;;;;;-3.31;98.94;101749.84;5051254;28;20041;-72
2021/12/22 05:26:37;;;;;;;25.37;16.67;;;;;;;-3.30;98.69;101746.63;5051570;28;20079;-71
2021/12/22 05:29:04;;;;;;;26.47;15.97;;;;;;;-3.20;98.34;101753.59;5052098;28;20116;-71
2021/12/22 05:31:29;;;;;;;28.33;17.00;;;;;;;-3.27;98.24;101751.09;5051859;28;20025;-71
2021/12/22 05:33:55;;;;;;;31.17;16.80;;;;;;;-3.36;98.11;101739.97;5051639;28;20083;-72
2021/12/22 05:36:21;;;;;;;27.23;17.43;;;;;;;-3.22;98.54;101762.63;5033945;28;20458;-72
2021/12/22 05:38:46;;;;;;;30.10;17.80;;;;;;;-3.19;98.23;101762.06;5051084;28;20111;-73
2021/12/22 05:41:12;;;;;;;24.73;15.07;;;;;;;-3.67;97.71;101693.59;5000289;28;20128;-73
2021/12/22 05:43:37;;;;;;;30.37;17.03;;;;;;;-3.64;97.91;101714.13;4990066;28;20046;-73
2021/12/22 05:46:03;;;;;;;28.80;15.97;;;;;;;-3.77;98.74;101759.78;4990248;28;20089;-73
2021/12/22 05:48:29;;;;;;;26.17;13.67;;;;;;;-3.75;99.70;101774.38;4990253;28;20042;-73
2021/12/22 05:50:58;;;;;;;25.67;13.50;;;;;;;-3.72;100.00;101778.88;4990012;28;20039;-73
2021/12/22 05:53:25;;;;;;;19.77;11.57;;;;;;;-3.76;99.86;101770.03;4989996;28;20090;-73
2021/12/22 05:55:51;;;;;;;19.53;11.57;;;;;;;-3.84;99.78;101788.44;4990023;28;20038;-73
2021/12/22 05:58:16;;;;;;;18.83;10.93;;;;;;;-4.12;100.00;101777.69;4990034;28;20054;-73
2021/12/22 06:00:42;;;;;;;18.80;11.00;;;;;;;-4.33;100.00;101782.75;4973972;28;20082;-72
2021/12/22 06:03:10;;;;;;;19.00;11.03;;;;;;;-4.43;100.00;101785.81;4984029;28;20054;-73
2021/12/22 06:05:36;;;;;;;26.33;14.03;;;;;;;-4.59;100.00;101799.09;4988929;28;20497;-76
2021/12/22 06:08:02;;;;;;;27.17;13.80;;;;;;;-4.77;100.00;101770.09;4989652;28;20424;-75
2021/12/22 06:10:28;;;;;;;31.70;15.17;;;;;;;-4.63;100.00;101791.00;4989440;28;20610;-72
2021/12/22 06:12:53;;;;;;;26.83;14.50;;;;;;;-5.27;100.00;101686.91;5038212;28;20052;-72
2021/12/22 06:15:19;;;;;;;23.97;14.47;;;;;;;-4.83;100.00;101781.09;5050779;28;20021;-77
2021/12/22 06:17:47;;;;;;;25.33;14.50;;;;;;;-4.68;100.00;101795.50;5049608;28;20036;-72
2021/12/22 06:20:13;;;;;;;27.03;15.73;;;;;;;-4.66;100.00;101783.06;5049654;28;20082;-71
2021/12/22 06:22:38;;;;;;;44.53;23.03;;;;;;;-4.57;100.00;101791.75;5049636;28;20449;-76
2021/12/22 06:25:04;;;;;;;34.20;19.73;;;;;;;-4.50;100.00;101794.25;5048539;28;20025;-74
2021/12/22 06:27:30;;;;;;;32.07;17.07;;;;;;;-4.53;100.00;101793.88;5007527;28;20038;-74
2021/12/22 06:29:55;;;;;;;25.53;16.27;;;;;;;-4.49;100.00;101783.44;5006730;28;20050;-73
2021/12/22 06:32:21;;;;;;;35.70;23.40;;;;;;;-4.51;100.00;101796.59;4985796;28;20116;-73
2021/12/22 06:34:46;;;;;;;32.90;20.60;;;;;;;-4.77;100.00;101787.75;4987671;28;20109;-75
2021/12/22 06:37:13;;;;;;;28.83;16.53;;;;;;;-5.22;100.00;101703.44;4967894;28;20104;-76
2021/12/22 06:39:39;;;;;;;27.33;17.63;;;;;;;-4.64;100.00;101796.75;4986583;28;20047;-76
2021/12/22 06:42:07;;;;;;;23.67;15.20;;;;;;;-4.72;100.00;101785.78;4986525;28;20089;-76
2021/12/22 06:44:32;;;;;;;27.70;15.10;;;;;;;-4.79;100.00;101793.31;4987403;28;20030;-76
2021/12/22 06:46:58;;;;;;;32.63;17.47;;;;;;;-4.83;100.00;101791.16;4987145;28;20113;-75
2021/12/22 06:49:23;;;;;;;35.30;18.57;;;;;;;-4.94;100.00;101778.16;4987260;28;20046;-77
2021/12/22 06:51:50;;;;;;;49.77;23.57;;;;;;;-4.78;100.00;101790.97;4986769;28;20050;-78
2021/12/22 06:54:15;;;;;;;44.20;24.80;;;;;;;-4.62;100.00;101805.41;4986925;28;20038;-77
2021/12/22 06:56:41;;;;;;;58.70;32.80;;;;;;;-4.71;100.00;101806.09;4971084;28;20571;-77
2021/12/22 06:59:06;;;;;;;49.97;27.03;;;;;;;-4.74;100.00;101814.91;4987029;28;20532;-77
2021/12/22 07:01:34;;;;;;;29.57;16.33;;;;;;;-4.78;100.00;101818.69;4969821;28;20022;-77
2021/12/22 07:04:00;;;;;;;24.87;12.90;;;;;;;-4.85;100.00;101801.03;4992767;28;20572;-74
2021/12/22 07:06:26;;;;;;;22.97;13.50;;;;;;;-4.64;100.00;101809.38;5049007;28;20116;-75
2021/12/22 07:08:51;;;;;;;20.67;11.57;;;;;;;-4.54;100.00;101807.22;5049177;28;20029;-75
2021/12/22 07:11:17;;;;;;;24.30;13.20;;;;;;;-4.51;100.00;101787.44;5030166;28;20475;-76
2021/12/22 07:13:42;;;;;;;18.57;11.97;;;;;;;-4.22;100.00;101805.97;5048540;28;20029;-76
2021/12/22 07:16:08;;;;;;;28.03;13.43;;;;;;;-4.28;100.00;101786.69;5013929;28;20029;-75
2021/12/22 07:18:34;;;;;;;34.70;18.50;;;;;;;-4.08;100.00;101805.03;5048291;28;20091;-74
2021/12/22 07:21:00;;;;;;;42.37;19.60;;;;;;;-3.87;99.30;101804.88;5048429;28;20503;-75
2021/12/22 07:23:26;;;;;;;38.73;18.33;;;;;;;-3.95;98.47;101786.28;5049326;28;20100;-74
2021/12/22 07:25:51;;;;;;;32.60;17.33;;;;;;;-3.78;97.93;101814.38;5049381;28;20116;-74
2021/12/22 07:28:17;;;;;;;39.27;20.37;;;;;;;-3.63;97.52;101796.69;5049247;28;20402;-74
2021/12/22 07:30:42;;;;;;;27.87;17.67;;;;;;;-3.45;97.90;101811.41;5048726;28;20025;-75
2021/12/22 07:33:08;;;;;;;28.57;16.40;;;;;;;-3.39;97.78;101802.75;5044096;28;20056;-74
2021/12/22 07:35:41;;;;;;;30.73;17.20;;;;;;;-3.26;96.91;101805.94;5047881;28;20495;-75
2021/12/22 07:38:28;;;;;;;28.47;15.60;;;;;;;-3.04;96.48;101808.38;5048210;28;20029;-75
2021/12/22 07:40:59;;;;;;;31.47;19.00;;;;;;;-2.97;95.39;101808.34;5047968;28;20035;-75
2021/12/22 07:43:26;;;;;;;30.53;17.33;;;;;;;-2.82;95.00;101807.50;5030502;28;20550;-76
2021/12/22 07:45:52;;;;;;;35.47;20.27;;;;;;;-2.68;94.38;101805.63;5047710;28;20029;-76
2021/12/22 07:48:18;;;;;;;22.13;12.63;;;;;;;-2.73;93.55;101773.91;5049881;28;20040;-76
2021/12/22 07:50:44;;;;;;;18.70;10.17;;;;;;;-2.46;92.75;101819.91;5052667;28;20446;-75
2021/12/22 07:53:09;;;;;;;23.73;11.70;;;;;;;-2.37;93.78;101814.97;5052409;28;20066;-76
2021/12/22 07:55:35;;;;;;;23.13;13.53;;;;;;;-2.32;94.86;101820.56;5048231;28;20064;-75
2021/12/22 07:58:01;;;;;;;20.43;12.97;;;;;;;-2.21;94.06;101809.97;5038133;28;20056;-75
2021/12/22 08:00:27;;;;;;;22.67;13.23;;;;;;;-2.33;94.24;101761.50;5030913;28;20033;-75
2021/12/22 08:02:53;;;;;;;24.37;15.10;;;;;;;-1.97;95.28;101818.44;5033294;28;20076;-74
2021/12/22 08:05:19;;;;;;;24.93;14.73;;;;;;;-1.94;95.40;101818.81;5036028;28;20513;-74
2021/12/22 08:07:44;;;;;;;29.77;16.47;;;;;;;-1.77;95.31;101828.19;5032657;28;20176;-75
2021/12/22 08:10:10;;;;;;;25.50;16.63;;;;;;;-1.68;94.45;101821.63;5039755;28;20040;-75
2021/12/22 08:12:35;;;;;;;26.50;15.80;;;;;;;-1.80;94.89;101816.13;5032633;28;20057;-75
2021/12/22 08:15:02;;;;;;;31.60;21.13;;;;;;;-2.00;94.90;101777.63;5032551;28;22172;-74
2021/12/22 08:17:29;;;;;;;27.20;17.20;;;;;;;-1.86;94.54;101829.75;5031490;28;20036;-74
2021/12/22 08:19:55;;;;;;;27.67;16.47;;;;;;;-1.67;94.59;101819.97;5050366;28;20033;-73
2021/12/22 08:22:20;;;;;;;27.03;16.67;;;;;;;-1.50;94.33;101817.59;5052763;28;20466;-74
2021/12/22 08:24:46;;;;;;;22.63;14.50;;;;;;;-1.45;92.93;101819.75;5015649;28;20056;-78
2021/12/22 08:27:12;;;;;;;26.53;15.77;;;;;;;-1.37;93.33;101824.91;5051752;28;20025;-76
2021/12/22 08:29:42;;;;;;;25.43;15.60;;;;;;;-1.17;93.02;101819.41;5049903;28;20029;-74
2021/12/22 08:32:09;;;;;;;26.27;16.87;;;;;;;-1.17;91.76;101814.34;5049146;28;20064;-74
2021/12/22 08:34:37;;;;;;;31.23;16.00;;;;;;;-1.29;92.60;101774.16;5050360;28;20029;-74
2021/12/22 08:39:48;;;;;;;22.10;13.50;;;;;;;-0.85;90.53;101814.28;5050524;28;20047;-74
2021/12/22 08:42:14;;;;;;;20.90;14.40;;;;;;;-0.82;89.82;101809.53;5033294;28;20413;-74
2021/12/22 08:44:39;;;;;;;24.50;15.20;;;;;;;-0.62;89.60;101823.38;5051162;28;20117;-75
2021/12/22 08:47:05;;;;;;;22.07;14.97;;;;;;;-0.54;88.62;101817.44;5036157;28;20124;-75
2021/12/22 08:49:31;;;;;;;21.90;14.50;;;;;;;-0.60;89.20;101819.34;5048999;28;20033;-75
2021/12/22 08:51:56;;;;;;;22.23;16.10;;;;;;;-0.61;87.79;101809.06;5047314;28;20407;-75
2021/12/22 08:54:22;;;;;;;18.03;11.50;;;;;;;-0.84;82.97;101780.56;5029699;28;20037;-76
2021/12/22 08:56:47;;;;;;;15.90;11.70;;;;;;;-0.44;84.52;101805.72;5046024;28;20040;-77
2021/12/22 08:59:16;;;;;;;18.77;11.63;;;;;;;-0.26;83.19;101800.00;5049449;28;20108;-77
2021/12/22 09:01:42;;;;;;;18.33;11.77;;;;;;;-0.17;82.09;101807.66;5049977;28;20032;-74
2021/12/22 09:04:08;;;;;;;21.60;12.50;;;;;;;-0.14;81.64;101812.13;5049888;28;20155;-74
2021/12/22 09:06:33;;;;;;;21.30;12.63;;;;;;;-0.19;81.90;101804.03;5044486;28;20040;-74
2021/12/22 09:08:59;;;;;;;19.20;12.73;;;;;;;-0.06;82.69;101790.97;5050170;28;20036;-75
2021/12/22 09:11:25;;;;;;;20.27;14.00;;;;;;;0.02;80.76;101790.09;5050129;28;20805;-75
2021/12/22 09:13:51;;;;;;;19.87;12.77;;;;;;;0.16;80.79;101794.00;5050826;28;20575;-76
2021/12/22 09:16:17;;;;;;;18.47;12.93;;;;;;;0.26;81.39;101789.13;5050218;28;20032;-76
2021/12/22 09:18:43;;;;;;;19.73;12.60;;;;;;;0.44;79.73;101789.13;5050451;28;20171;-76
2021/12/22 09:21:10;;;;;;;37.97;30.27;;;;;;;0.40;76.99;101777.78;5031987;28;20025;-74
2021/12/22 09:23:36;;;;;;;24.60;18.00;;;;;;;0.45;75.83;101775.69;5049412;28;20037;-74
2021/12/22 09:26:02;;;;;;;19.07;14.23;;;;;;;0.44;76.61;101768.81;5045683;28;20037;-76
2021/12/22 09:28:28;;;;;;;17.60;10.67;;;;;;;0.31;76.26;101766.69;5051044;28;20025;-75
2021/12/22 09:30:53;;;;;;;14.77;9.23;;;;;;;0.48;75.63;101756.53;5048108;28;20031;-75
2021/12/22 09:33:20;;;;;;;16.20;10.40;;;;;;;0.47;76.86;101758.94;5040502;28;20506;-75
2021/12/22 09:35:50;;;;;;;14.40;9.47;;;;;;;0.76;74.54;101755.78;5050877;28;20089;-74
2021/12/22 09:38:16;;;;;;;16.43;10.13;;;;;;;0.60;74.90;101748.34;5050369;28;20025;-75
2021/12/22 09:40:42;;;;;;;17.47;10.77;;;;;;;0.84;75.46;101757.44;5051401;28;20037;-75
2021/12/22 09:43:08;;;;;;;17.00;9.50;;;;;;;1.00;70.38;101739.47;5040489;28;20032;-76
2021/12/22 09:45:38;;;;;;;12.30;7.37;;;;;;;0.86;68.91;101744.88;5013923;28;20045;-76
2021/12/22 09:50:46;;;;;;;10.68;7.13;;;;;;;0.91;66.88;101738.59;5051149;28;20067;-76
2021/12/22 09:53:13;;;;;;;16.20;8.03;;;;;;;0.69;69.64;101739.06;5050868;28;20049;-76
2021/12/22 09:55:38;;;;;;;15.03;8.30;;;;;;;0.98;69.65;101730.81;5050545;28;20029;-76
2021/12/22 09:58:04;;;;;;;15.37;9.13;;;;;;;1.11;66.84;101727.81;5050626;28;20017;-74
2021/12/22 10:00:33;;;;;;;14.27;8.73;;;;;;;1.21;68.82;101725.38;5015021;28;20045;-74
2021/12/22 10:02:59;;;;;;;13.37;8.77;;;;;;;1.30;68.77;101725.34;4984520;28;20128;-74
2021/12/22 10:05:24;;;;;;;13.67;7.93;;;;;;;0.98;68.00;101724.84;5048025;28;20104;-74
2021/12/22 10:08:06;;;;;;;13.93;7.10;;;;;;;0.98;68.90;101725.72;5050233;28;20025;-75
2021/12/22 10:10:33;;;;;;;11.27;7.10;;;;;;;0.90;68.61;101719.91;5050361;28;20037;-74
2021/12/22 10:13:10;;;;;;;10.70;7.20;;;;;;;0.93;67.89;101712.56;5050291;28;20032;-74
2021/12/22 10:15:37;;;;;;;11.83;7.00;;;;;;;0.98;69.22;101710.47;5049003;28;20107;-74
2021/12/22 10:18:16;;;;;;;11.63;6.67;;;;;;;1.09;67.19;101716.56;5014638;28;20043;-75
2021/12/22 10:20:44;;;;;;;10.77;6.70;;;;;;;1.15;67.15;101726.41;5050031;28;20033;-74
2021/12/22 10:23:27;;;;;;;9.30;6.33;;;;;;;1.03;68.02;101719.41;5050368;28;20028;-74
2021/12/22 10:25:54;;;;;;;9.03;5.10;;;;;;;0.72;65.98;101675.81;5050233;28;20025;-74
2021/12/22 10:28:20;;;;;;;8.63;5.90;;;;;;;0.82;68.45;101717.38;5049716;28;20025;-75
2021/12/22 10:30:48;;;;;;;11.17;6.63;;;;;;;0.76;68.56;101725.28;5050932;28;20059;-74
2021/12/22 10:33:19;;;;;;;12.50;7.10;;;;;;;0.88;67.73;101701.06;5050794;28;20025;-75
2021/12/22 10:35:48;;;;;;;10.47;6.10;;;;;;;0.88;66.18;101662.91;5050628;28;20124;-75
2021/12/22 10:38:18;;;;;;;11.57;6.57;;;;;;;1.09;65.93;101712.38;5050948;28;20036;-75
2021/12/22 10:40:49;;;;;;;11.25;6.10;;;;;;;1.42;65.80;101706.16;5050372;28;20033;-75
2021/12/22 10:43:30;;;;;;;18.10;7.60;;;;;;;1.57;66.16;101703.22;5050443;28;20108;-75
2021/12/22 10:46:00;;;;;;;10.43;7.30;;;;;;;1.55;65.85;101708.16;5050720;28;20642;-74
2021/12/22 10:51:19;;;;;;;9.93;6.73;;;;;;;2.01;64.03;101696.25;5050652;28;20032;-75
2021/12/22 10:53:47;;;;;;;11.03;6.33;;;;;;;1.36;63.21;101641.97;5050616;28;20415;-74
2021/12/22 10:56:36;;;;;;;10.60;6.60;;;;;;;1.57;64.21;101700.66;5050539;28;20040;-75
2021/12/22 10:59:08;;;;;;;10.15;6.45;;;;;;;1.83;64.82;101687.78;5050849;28;20032;-74
2021/12/22 11:01:41;;;;;;;10.90;6.83;;;;;;;1.90;63.80;101674.00;5050534;28;20025;-74
2021/12/22 11:04:17;;;;;;;10.07;6.70;;;;;;;1.73;63.67;101673.34;5050572;28;20032;-76
2021/12/22 11:06:43;;;;;;;11.00;6.73;;;;;;;1.84;64.42;101675.97;5038875;28;20411;-75
2021/12/22 11:09:14;;;;;;;11.40;7.47;;;;;;;1.77;66.47;101669.44;5038013;28;20025;-76
2021/12/22 11:11:49;;;;;;;13.83;9.47;;;;;;;1.55;64.46;101648.75;5050130;28;20029;-75
2021/12/22 11:14:24;;;;;;;10.50;7.20;;;;;;;1.52;64.91;101671.34;5050479;28;20037;-76
2021/12/22 11:17:00;;;;;;;10.30;6.67;;;;;;;0.96;66.01;101615.34;5040884;28;20033;-76
2021/12/22 11:19:29;;;;;;;9.20;6.53;;;;;;;1.15;66.41;101655.19;5041096;28;20434;-75
2021/12/22 11:22:14;;;;;;;10.23;6.18;;;;;;;1.09;64.71;101663.16;5040230;28;20029;-76
2021/12/22 11:24:50;;;;;;;10.13;6.23;;;;;;;1.28;66.41;101646.34;5032313;28;20492;-75
2021/12/22 11:27:22;;;;;;;11.53;7.53;;;;;;;1.05;65.81;101616.19;5034594;28;20114;-75
2021/12/22 11:29:54;;;;;;;11.77;6.97;;;;;;;1.34;65.06;101653.63;5036421;28;20112;-75
2021/12/22 11:32:22;;;;;;;9.50;5.90;;;;;;;1.16;65.10;101657.00;5035752;28;20029;-75
2021/12/22 11:34:50;;;;;;;10.30;6.20;;;;;;;1.37;64.04;101653.94;5042642;28;20091;-76
2021/12/22 11:37:16;;;;;;;12.97;7.93;;;;;;;1.41;64.45;101653.44;5017964;28;20122;-75